sensor_id;sensor_type;location;lat;lon;timestamp;pressure;altitude;pressure_sealevel;temperature;humidity
62708;BME280;48769;51.624;5.886;2022-12-07T00:02:09;101618.09;;;6.73;96.73
62708;BME280;48769;51.624;5.886;2022-12-07T00:04:34;101613.72;;;6.72;97.16
62708;BME280;48769;51.624;5.886;2022-12-07T00:06:59;101612.75;;;6.76;97.89
62708;BME280;48769;51.624;5.886;2022-12-07T00:09:24;101609.28;;;6.74;98.55
62708;BME280;48769;51.624;5.886;2022-12-07T00:11:51;101607.44;;;6.79;99.09
62708;BME280;48769;51.624;5.886;2022-12-07T00:14:16;101608.94;;;6.90;99.24
62708;BME280;48769;51.624;5.886;2022-12-07T00:16:43;101606.25;;;6.93;98.35
62708;BME280;48769;51.624;5.886;2022-12-07T00:19:11;101612.31;;;6.95;97.38
62708;BME280;48769;51.624;5.886;2022-12-07T00:21:37;101598.44;;;6.90;96.93
62708;BME280;48769;51.624;5.886;2022-12-07T00:24:04;101608.22;;;6.83;96.35
62708;BME280;48769;51.624;5.886;2022-12-07T00:26:32;101588.22;;;6.77;96.34
62708;BME280;48769;51.624;5.886;2022-12-07T00:29:03;101593.75;;;6.65;96.88
62708;BME280;48769;51.624;5.886;2022-12-07T00:31:32;101590.31;;;6.63;96.81
62708;BME280;48769;51.624;5.886;2022-12-07T00:33:59;101586.88;;;6.60;96.53
62708;BME280;48769;51.624;5.886;2022-12-07T00:36:25;101580.03;;;6.54;96.36
62708;BME280;48769;51.624;5.886;2022-12-07T00:38:50;101582.72;;;6.51;96.75
62708;BME280;48769;51.624;5.886;2022-12-07T00:41:20;101591.63;;;6.44;97.38
62708;BME280;48769;51.624;5.886;2022-12-07T00:43:48;101581.94;;;6.46;97.18
62708;BME280;48769;51.624;5.886;2022-12-07T00:46:15;101580.28;;;6.42;96.79
62708;BME280;48769;51.624;5.886;2022-12-07T00:48:40;101575.88;;;6.44;97.08
62708;BME280;48769;51.624;5.886;2022-12-07T00:51:06;101587.25;;;6.43;97.48
62708;BME280;48769;51.624;5.886;2022-12-07T00:53:35;101581.06;;;6.47;97.51
62708;BME280;48769;51.624;5.886;2022-12-07T00:56:05;101581.09;;;6.45;97.61
62708;BME280;48769;51.624;5.886;2022-12-07T00:58:31;101585.47;;;6.45;97.32
62708;BME280;48769;51.624;5.886;2022-12-07T01:01:00;101583.91;;;6.38;98.22
62708;BME280;48769;51.624;5.886;2022-12-07T01:03:26;101584.69;;;6.41;97.97
62708;BME280;48769;51.624;5.886;2022-12-07T01:05:54;101582.00;;;6.43;97.97
62708;BME280;48769;51.624;5.886;2022-12-07T01:08:20;101583.75;;;6.44;98.53
62708;BME280;48769;51.624;5.886;2022-12-07T01:10:46;101572.16;;;6.54;99.73
62708;BME280;48769;51.624;5.886;2022-12-07T01:13:12;101577.94;;;6.68;99.72
62708;BME280;48769;51.624;5.886;2022-12-07T01:15:42;101583.03;;;6.74;99.70
62708;BME280;48769;51.624;5.886;2022-12-07T01:18:08;101576.06;;;6.73;99.44
62708;BME280;48769;51.624;5.886;2022-12-07T01:20:34;101581.19;;;6.79;98.73
62708;BME280;48769;51.624;5.886;2022-12-07T01:23:00;101585.53;;;6.79;97.68
62708;BME280;48769;51.624;5.886;2022-12-07T01:25:25;101583.09;;;6.71;97.08
62708;BME280;48769;51.624;5.886;2022-12-07T01:27:51;101576.28;;;6.63;97.03
62708;BME280;48769;51.624;5.886;2022-12-07T01:30:16;101575.59;;;6.56;96.73
62708;BME280;48769;51.624;5.886;2022-12-07T01:32:41;101586.19;;;6.51;96.42
62708;BME280;48769;51.624;5.886;2022-12-07T01:35:07;101584.63;;;6.44;96.19
62708;BME280;48769;51.624;5.886;2022-12-07T01:37:37;101580.34;;;6.39;96.23
62708;BME280;48769;51.624;5.886;2022-12-07T01:40:07;101582.22;;;6.33;96.41
62708;BME280;48769;51.624;5.886;2022-12-07T01:42:33;101578.78;;;6.31;96.67
62708;BME280;48769;51.624;5.886;2022-12-07T01:45:36;101583.22;;;6.28;96.13
62708;BME280;48769;51.624;5.886;2022-12-07T01:48:02;101582.44;;;6.24;97.07
62708;BME280;48769;51.624;5.886;2022-12-07T01:50:29;101589.50;;;6.21;97.96
62708;BME280;48769;51.624;5.886;2022-12-07T01:52:58;101581.53;;;6.24;99.02
62708;BME280;48769;51.624;5.886;2022-12-07T01:55:26;101581.34;;;6.33;99.66
62708;BME280;48769;51.624;5.886;2022-12-07T01:57:53;101584.81;;;6.35;98.98
62708;BME280;48769;51.624;5.886;2022-12-07T02:00:19;101579.56;;;6.35;98.02
62708;BME280;48769;51.624;5.886;2022-12-07T02:02:55;101576.16;;;6.30;97.64
62708;BME280;48769;51.624;5.886;2022-12-07T02:05:23;101575.50;;;6.20;97.21
62708;BME280;48769;51.624;5.886;2022-12-07T02:07:50;101578.19;;;6.19;97.89
62708;BME280;48769;51.624;5.886;2022-12-07T02:10:20;101568.66;;;6.13;98.00
62708;BME280;48769;51.624;5.886;2022-12-07T02:12:49;101573.00;;;6.14;97.48
62708;BME280;48769;51.624;5.886;2022-12-07T02:15:16;101569.53;;;6.14;97.63
62708;BME280;48769;51.624;5.886;2022-12-07T02:20:27;101566.22;;;6.04;98.11
62708;BME280;48769;51.624;5.886;2022-12-07T02:25:52;101569.97;;;5.92;97.81
62708;BME280;48769;51.624;5.886;2022-12-07T02:28:51;101568.38;;;5.85;97.92
62708;BME280;48769;51.624;5.886;2022-12-07T02:31:23;101567.53;;;5.81;98.22
62708;BME280;48769;51.624;5.886;2022-12-07T02:34:18;101574.66;;;5.76;98.65
62708;BME280;48769;51.624;5.886;2022-12-07T02:36:52;101578.19;;;5.74;98.29
62708;BME280;48769;51.624;5.886;2022-12-07T02:39:25;101579.09;;;5.73;98.98
62708;BME280;48769;51.624;5.886;2022-12-07T02:41:57;101574.78;;;5.70;99.25
62708;BME280;48769;51.624;5.886;2022-12-07T02:44:26;101574.78;;;5.70;98.96
62708;BME280;48769;51.624;5.886;2022-12-07T02:46:57;101574.88;;;5.64;98.98
62708;BME280;48769;51.624;5.886;2022-12-07T02:49:26;101568.78;;;5.62;98.89
62708;BME280;48769;51.624;5.886;2022-12-07T02:51:52;101561.78;;;5.64;98.47
62708;BME280;48769;51.624;5.886;2022-12-07T02:54:19;101557.44;;;5.63;98.23
62708;BME280;48769;51.624;5.886;2022-12-07T02:56:52;101564.47;;;5.61;98.32
62708;BME280;48769;51.624;5.886;2022-12-07T03:07:38;101573.41;;;5.51;98.56
62708;BME280;48769;51.624;5.886;2022-12-07T03:13:21;101571.75;;;5.45;99.44
62708;BME280;48769;51.624;5.886;2022-12-07T03:18:23;101574.34;;;5.47;99.60
62708;BME280;48769;51.624;5.886;2022-12-07T03:20:52;101569.06;;;5.48;100.00
62708;BME280;48769;51.624;5.886;2022-12-07T03:23:20;101575.97;;;5.54;100.00
62708;BME280;48769;51.624;5.886;2022-12-07T03:25:50;101575.78;;;5.63;100.00
62708;BME280;48769;51.624;5.886;2022-12-07T03:28:21;101578.06;;;5.80;100.00
62708;BME280;48769;51.624;5.886;2022-12-07T03:30:54;101568.44;;;5.82;100.00
62708;BME280;48769;51.624;5.886;2022-12-07T03:33:29;101569.28;;;5.82;100.00
62708;BME280;48769;51.624;5.886;2022-12-07T03:36:04;101570.31;;;5.75;99.74
62708;BME280;48769;51.624;5.886;2022-12-07T03:38:42;101569.59;;;5.67;99.41
62708;BME280;48769;51.624;5.886;2022-12-07T03:41:16;101568.78;;;5.63;99.13
62708;BME280;48769;51.624;5.886;2022-12-07T03:43:45;101566.22;;;5.60;98.75
62708;BME280;48769;51.624;5.886;2022-12-07T03:46:32;101564.50;;;5.58;98.61
62708;BME280;48769;51.624;5.886;2022-12-07T03:49:11;101560.25;;;5.52;98.71
62708;BME280;48769;51.624;5.886;2022-12-07T03:52:02;101566.44;;;5.50;98.35
62708;BME280;48769;51.624;5.886;2022-12-07T03:54:34;101560.34;;;5.48;98.94
62708;BME280;48769;51.624;5.886;2022-12-07T03:57:02;101561.25;;;5.47;99.76
62708;BME280;48769;51.624;5.886;2022-12-07T03:59:30;101559.44;;;5.49;99.82
62708;BME280;48769;51.624;5.886;2022-12-07T04:02:01;101568.09;;;5.52;100.00
62708;BME280;48769;51.624;5.886;2022-12-07T04:04:27;101566.38;;;5.53;99.99
62708;BME280;48769;51.624;5.886;2022-12-07T04:06:53;101568.94;;;5.56;100.00
62708;BME280;48769;51.624;5.886;2022-12-07T04:09:18;101565.31;;;5.63;100.00
62708;BME280;48769;51.624;5.886;2022-12-07T04:11:44;101566.91;;;5.69;100.00
62708;BME280;48769;51.624;5.886;2022-12-07T04:14:09;101557.22;;;5.75;100.00
62708;BME280;48769;51.624;5.886;2022-12-07T04:16:48;101559.66;;;5.83;100.00
62708;BME280;48769;51.624;5.886;2022-12-07T04:19:14;101561.25;;;5.92;100.00
62708;BME280;48769;51.624;5.886;2022-12-07T04:21:40;101563.75;;;5.98;100.00
62708;BME280;48769;51.624;5.886;2022-12-07T04:24:05;101569.78;;;6.03;100.00
62708;BME280;48769;51.624;5.886;2022-12-07T04:26:31;101561.84;;;6.06;100.00
62708;BME280;48769;51.624;5.886;2022-12-07T04:28:56;101567.03;;;6.09;100.00
62708;BME280;48769;51.624;5.886;2022-12-07T04:31:21;101555.56;;;6.13;100.00
62708;BME280;48769;51.624;5.886;2022-12-07T04:33:47;101554.59;;;6.17;100.00
62708;BME280;48769;51.624;5.886;2022-12-07T04:36:12;101550.19;;;6.19;100.00
62708;BME280;48769;51.624;5.886;2022-12-07T04:38:38;101551.88;;;6.22;99.31
62708;BME280;48769;51.624;5.886;2022-12-07T04:41:07;101565.13;;;6.14;98.45
62708;BME280;48769;51.624;5.886;2022-12-07T04:43:33;101554.81;;;6.06;98.39
62708;BME280;48769;51.624;5.886;2022-12-07T04:45:58;101553.19;;;6.01;98.98
62708;BME280;48769;51.624;5.886;2022-12-07T04:48:23;101548.84;;;6.00;99.77
62708;BME280;48769;51.624;5.886;2022-12-07T04:50:49;101551.28;;;6.09;99.45
62708;BME280;48769;51.624;5.886;2022-12-07T04:53:15;101536.19;;;6.19;100.00
62708;BME280;48769;51.624;5.886;2022-12-07T04:55:40;101537.91;;;6.20;99.71
62708;BME280;48769;51.624;5.886;2022-12-07T04:58:05;101534.31;;;6.25;99.38
62708;BME280;48769;51.624;5.886;2022-12-07T05:00:30;101538.63;;;6.28;99.55
62708;BME280;48769;51.624;5.886;2022-12-07T05:02:56;101530.88;;;6.22;99.09
62708;BME280;48769;51.624;5.886;2022-12-07T05:05:21;101527.34;;;6.23;98.64
62708;BME280;48769;51.624;5.886;2022-12-07T05:07:46;101538.88;;;6.16;98.06
62708;BME280;48769;51.624;5.886;2022-12-07T05:10:12;101533.75;;;6.11;98.11
62708;BME280;48769;51.624;5.886;2022-12-07T05:12:37;101531.22;;;6.06;97.16
62708;BME280;48769;51.624;5.886;2022-12-07T05:15:03;101532.25;;;5.99;96.90
62708;BME280;48769;51.624;5.886;2022-12-07T05:17:28;101535.88;;;5.94;96.47
62708;BME280;48769;51.624;5.886;2022-12-07T05:19:54;101530.78;;;5.84;96.38
62708;BME280;48769;51.624;5.886;2022-12-07T05:22:19;101531.81;;;5.77;96.66
62708;BME280;48769;51.624;5.886;2022-12-07T05:24:44;101536.28;;;5.72;96.58
62708;BME280;48769;51.624;5.886;2022-12-07T05:27:09;101539.03;;;5.66;97.16
62708;BME280;48769;51.624;5.886;2022-12-07T05:29:35;101535.69;;;5.58;96.92
62708;BME280;48769;51.624;5.886;2022-12-07T05:32:00;101544.44;;;5.57;97.33
62708;BME280;48769;51.624;5.886;2022-12-07T05:34:25;101536.59;;;5.57;98.41
62708;BME280;48769;51.624;5.886;2022-12-07T05:36:51;101544.34;;;5.63;99.49
62708;BME280;48769;51.624;5.886;2022-12-07T05:39:16;101538.06;;;5.70;99.46
62708;BME280;48769;51.624;5.886;2022-12-07T05:41:41;101545.03;;;5.71;98.93
62708;BME280;48769;51.624;5.886;2022-12-07T05:44:26;101536.34;;;5.69;98.58
62708;BME280;48769;51.624;5.886;2022-12-07T05:46:51;101546.09;;;5.62;98.79
62708;BME280;48769;51.624;5.886;2022-12-07T05:49:16;101543.50;;;5.61;98.78
62708;BME280;48769;51.624;5.886;2022-12-07T05:51:41;101535.63;;;5.61;98.80
62708;BME280;48769;51.624;5.886;2022-12-07T05:54:07;101540.84;;;5.62;98.59
62708;BME280;48769;51.624;5.886;2022-12-07T05:56:32;101541.72;;;5.61;99.51
62708;BME280;48769;51.624;5.886;2022-12-07T05:58:58;101534.78;;;5.60;99.64
62708;BME280;48769;51.624;5.886;2022-12-07T06:01:42;101531.31;;;5.58;98.91
62708;BME280;48769;51.624;5.886;2022-12-07T06:04:07;101534.88;;;5.54;98.62
62708;BME280;48769;51.624;5.886;2022-12-07T06:06:32;101536.75;;;5.48;98.55
62708;BME280;48769;51.624;5.886;2022-12-07T06:08:58;101524.69;;;5.41;98.63
62708;BME280;48769;51.624;5.886;2022-12-07T06:11:23;101528.25;;;5.36;98.52
62708;BME280;48769;51.624;5.886;2022-12-07T06:14:07;101530.88;;;5.35;98.85
62708;BME280;48769;51.624;5.886;2022-12-07T06:16:33;101523.13;;;5.30;98.85
62708;BME280;48769;51.624;5.886;2022-12-07T06:18:58;101523.19;;;5.27;99.26
62708;BME280;48769;51.624;5.886;2022-12-07T06:21:23;101532.72;;;5.31;99.97
62708;BME280;48769;51.624;5.886;2022-12-07T06:23:51;101537.84;;;5.36;100.00
62708;BME280;48769;51.624;5.886;2022-12-07T06:26:16;101538.59;;;5.43;100.00
62708;BME280;48769;51.624;5.886;2022-12-07T06:28:41;101528.94;;;5.46;100.00
62708;BME280;48769;51.624;5.886;2022-12-07T06:31:07;101540.22;;;5.50;100.00
62708;BME280;48769;51.624;5.886;2022-12-07T06:33:33;101533.19;;;5.52;100.00
62708;BME280;48769;51.624;5.886;2022-12-07T06:35:58;101547.91;;;5.59;100.00
62708;BME280;48769;51.624;5.886;2022-12-07T06:38:23;101540.06;;;5.59;100.00
62708;BME280;48769;51.624;5.886;2022-12-07T06:40:49;101541.66;;;5.65;100.00
62708;BME280;48769;51.624;5.886;2022-12-07T06:43:15;101536.34;;;5.69;100.00
62708;BME280;48769;51.624;5.886;2022-12-07T06:45:41;101531.16;;;5.66;100.00
62708;BME280;48769;51.624;5.886;2022-12-07T06:48:06;101534.72;;;5.62;99.95
62708;BME280;48769;51.624;5.886;2022-12-07T06:50:31;101540.06;;;5.59;99.69
62708;BME280;48769;51.624;5.886;2022-12-07T06:52:57;101544.53;;;5.52;99.33
62708;BME280;48769;51.624;5.886;2022-12-07T06:55:22;101533.28;;;5.46;98.41
62708;BME280;48769;51.624;5.886;2022-12-07T06:57:47;101530.88;;;5.35;98.95
62708;BME280;48769;51.624;5.886;2022-12-07T07:00:13;101533.63;;;5.29;98.52
62708;BME280;48769;51.624;5.886;2022-12-07T07:02:39;101530.25;;;5.22;98.53
62708;BME280;48769;51.624;5.886;2022-12-07T07:05:04;101532.09;;;5.17;99.16
62708;BME280;48769;51.624;5.886;2022-12-07T07:07:29;101540.84;;;5.16;99.09
62708;BME280;48769;51.624;5.886;2022-12-07T07:09:55;101545.28;;;5.12;98.32
62708;BME280;48769;51.624;5.886;2022-12-07T07:12:20;101534.00;;;5.09;99.18
62708;BME280;48769;51.624;5.886;2022-12-07T07:14:45;101549.69;;;5.09;99.24
62708;BME280;48769;51.624;5.886;2022-12-07T07:17:11;101543.69;;;5.04;99.71
62708;BME280;48769;51.624;5.886;2022-12-07T07:19:36;101548.94;;;5.02;100.00
62708;BME280;48769;51.624;5.886;2022-12-07T07:22:03;101541.13;;;5.01;99.88
62708;BME280;48769;51.624;5.886;2022-12-07T07:24:28;101543.75;;;4.99;100.00
62708;BME280;48769;51.624;5.886;2022-12-07T07:26:54;101545.53;;;4.97;100.00
62708;BME280;48769;51.624;5.886;2022-12-07T07:29:19;101549.91;;;4.97;99.83
62708;BME280;48769;51.624;5.886;2022-12-07T07:31:44;101556.00;;;4.97;100.00
62708;BME280;48769;51.624;5.886;2022-12-07T07:34:10;101554.22;;;4.99;100.00
62708;BME280;48769;51.624;5.886;2022-12-07T07:36:35;101558.63;;;4.97;100.00
62708;BME280;48769;51.624;5.886;2022-12-07T07:39:00;101550.75;;;4.97;100.00
62708;BME280;48769;51.624;5.886;2022-12-07T07:41:25;101556.00;;;4.99;100.00
62708;BME280;48769;51.624;5.886;2022-12-07T07:43:51;101548.09;;;5.02;100.00
62708;BME280;48769;51.624;5.886;2022-12-07T07:46:16;101551.41;;;5.10;100.00
62708;BME280;48769;51.624;5.886;2022-12-07T07:48:41;101554.88;;;5.12;100.00
62708;BME280;48769;51.624;5.886;2022-12-07T07:51:07;101562.72;;;5.13;100.00
62708;BME280;48769;51.624;5.886;2022-12-07T07:53:33;101549.63;;;5.13;100.00
62708;BME280;48769;51.624;5.886;2022-12-07T07:55:58;101553.03;;;5.19;99.95
62708;BME280;48769;51.624;5.886;2022-12-07T07:58:24;101558.25;;;5.20;99.71
62708;BME280;48769;51.624;5.886;2022-12-07T08:00:49;101559.97;;;5.21;99.70
62708;BME280;48769;51.624;5.886;2022-12-07T08:03:14;101568.78;;;5.17;99.79
62708;BME280;48769;51.624;5.886;2022-12-07T08:05:40;101566.13;;;5.19;100.00
62708;BME280;48769;51.624;5.886;2022-12-07T08:08:06;101558.25;;;5.20;100.00
62708;BME280;48769;51.624;5.886;2022-12-07T08:10:31;101566.94;;;5.22;100.00
62708;BME280;48769;51.624;5.886;2022-12-07T08:12:57;101560.81;;;5.22;100.00
62708;BME280;48769;51.624;5.886;2022-12-07T08:15:43;101558.06;;;5.29;100.00
62708;BME280;48769;51.624;5.886;2022-12-07T08:18:09;101571.91;;;5.36;100.00
62708;BME280;48769;51.624;5.886;2022-12-07T08:20:35;101555.28;;;5.38;100.00
62708;BME280;48769;51.624;5.886;2022-12-07T08:23:01;101562.22;;;5.41;100.00
62708;BME280;48769;51.624;5.886;2022-12-07T08:25:28;101559.50;;;5.46;100.00
62708;BME280;48769;51.624;5.886;2022-12-07T08:27:54;101561.13;;;5.53;100.00
62708;BME280;48769;51.624;5.886;2022-12-07T08:30:20;101556.81;;;5.50;100.00
62708;BME280;48769;51.624;5.886;2022-12-07T08:32:46;101564.56;;;5.55;100.00
62708;BME280;48769;51.624;5.886;2022-12-07T08:35:12;101575.00;;;5.58;99.82
62708;BME280;48769;51.624;5.886;2022-12-07T08:37:38;101571.56;;;5.56;99.53
62708;BME280;48769;51.624;5.886;2022-12-07T08:40:06;101573.41;;;5.51;100.00
62708;BME280;48769;51.624;5.886;2022-12-07T08:42:32;101590.72;;;5.58;100.00
62708;BME280;48769;51.624;5.886;2022-12-07T08:45:13;101587.09;;;5.65;100.00
62708;BME280;48769;51.624;5.886;2022-12-07T08:47:52;101581.72;;;5.71;100.00
62708;BME280;48769;51.624;5.886;2022-12-07T08:50:20;101579.72;;;5.85;100.00
62708;BME280;48769;51.624;5.886;2022-12-07T08:52:55;101576.03;;;5.96;99.82
62708;BME280;48769;51.624;5.886;2022-12-07T08:55:22;101573.19;;;6.06;100.00
62708;BME280;48769;51.624;5.886;2022-12-07T08:57:47;101572.88;;;6.20;99.80
62708;BME280;48769;51.624;5.886;2022-12-07T09:00:16;101571.28;;;6.15;99.03
62708;BME280;48769;51.624;5.886;2022-12-07T09:02:43;101570.31;;;6.19;99.23
62708;BME280;48769;51.624;5.886;2022-12-07T09:05:09;101569.31;;;6.24;99.11
62708;BME280;48769;51.624;5.886;2022-12-07T09:07:35;101566.63;;;6.27;98.99
62708;BME280;48769;51.624;5.886;2022-12-07T09:10:02;101572.59;;;6.34;99.26
62708;BME280;48769;51.624;5.886;2022-12-07T09:12:27;101578.44;;;6.47;99.25
62708;BME280;48769;51.624;5.886;2022-12-07T09:14:53;101575.81;;;6.47;98.63
62708;BME280;48769;51.624;5.886;2022-12-07T09:17:18;101573.25;;;6.44;98.53
62708;BME280;48769;51.624;5.886;2022-12-07T09:19:43;101574.19;;;6.41;97.95
62708;BME280;48769;51.624;5.886;2022-12-07T09:22:09;101564.69;;;6.36;98.23
62708;BME280;48769;51.624;5.886;2022-12-07T09:24:34;101568.28;;;6.31;97.95
62708;BME280;48769;51.624;5.886;2022-12-07T09:27:00;101567.28;;;6.37;98.07
62708;BME280;48769;51.624;5.886;2022-12-07T09:29:25;101577.59;;;6.45;98.67
62708;BME280;48769;51.624;5.886;2022-12-07T09:31:51;101569.53;;;6.54;99.12
62708;BME280;48769;51.624;5.886;2022-12-07T09:34:17;101584.88;;;6.71;98.86
62708;BME280;48769;51.624;5.886;2022-12-07T09:36:43;101579.06;;;6.94;98.92
62708;BME280;48769;51.624;5.886;2022-12-07T09:39:08;101579.47;;;7.13;99.27
62708;BME280;48769;51.624;5.886;2022-12-07T09:41:37;101580.34;;;7.47;99.20
62708;BME280;48769;51.624;5.886;2022-12-07T09:44:12;101572.34;;;7.82;97.68
62708;BME280;48769;51.624;5.886;2022-12-07T09:46:41;101573.81;;;8.22;97.87
62708;BME280;48769;51.624;5.886;2022-12-07T09:49:18;101574.06;;;8.43;96.71
62708;BME280;48769;51.624;5.886;2022-12-07T09:51:45;101578.72;;;8.34;94.84
62708;BME280;48769;51.624;5.886;2022-12-07T09:54:15;101575.25;;;8.04;93.74
62708;BME280;48769;51.624;5.886;2022-12-07T09:56:41;101576.44;;;7.92;93.43
62708;BME280;48769;51.624;5.886;2022-12-07T09:59:13;101565.91;;;7.92;93.46
62708;BME280;48769;51.624;5.886;2022-12-07T10:01:40;101572.53;;;8.05;93.48
62708;BME280;48769;51.624;5.886;2022-12-07T10:04:18;101564.19;;;8.50;93.72
62708;BME280;48769;51.624;5.886;2022-12-07T10:06:46;101550.66;;;9.66;89.99
62708;BME280;48769;51.624;5.886;2022-12-07T10:09:18;101546.19;;;11.03;86.88
62708;BME280;48769;51.624;5.886;2022-12-07T10:12:12;101535.75;;;12.36;79.07
62708;BME280;48769;51.624;5.886;2022-12-07T10:14:51;101528.69;;;12.54;76.17
62708;BME280;48769;51.624;5.886;2022-12-07T10:17:38;101513.28;;;12.62;70.62
62708;BME280;48769;51.624;5.886;2022-12-07T10:20:22;101523.69;;;13.19;72.44
62708;BME280;48769;51.624;5.886;2022-12-07T10:23:02;101506.41;;;13.63;68.98
62708;BME280;48769;51.624;5.886;2022-12-07T10:25:30;101504.91;;;14.06;67.96
62708;BME280;48769;51.624;5.886;2022-12-07T10:28:00;101500.25;;;13.62;67.85
62708;BME280;48769;51.624;5.886;2022-12-07T10:30:26;101502.97;;;13.10;69.68
62708;BME280;48769;51.624;5.886;2022-12-07T10:32:52;101507.59;;;12.53;70.47
62708;BME280;48769;51.624;5.886;2022-12-07T10:35:28;101498.50;;;12.22;71.58
62708;BME280;48769;51.624;5.886;2022-12-07T10:37:56;101498.03;;;11.75;73.36
62708;BME280;48769;51.624;5.886;2022-12-07T10:40:33;101507.69;;;11.36;74.71
62708;BME280;48769;51.624;5.886;2022-12-07T10:48:22;101502.00;;;10.42;78.50
62708;BME280;48769;51.624;5.886;2022-12-07T10:51:06;101498.94;;;10.31;79.35
62708;BME280;48769;51.624;5.886;2022-12-07T10:59:03;101492.34;;;9.95;81.44
62708;BME280;48769;51.624;5.886;2022-12-07T11:01:45;101491.88;;;9.84;81.38
62708;BME280;48769;51.624;5.886;2022-12-07T11:12:26;101478.69;;;9.84;82.01
62708;BME280;48769;51.624;5.886;2022-12-07T11:15:00;101481.91;;;9.92;82.00
62708;BME280;48769;51.624;5.886;2022-12-07T11:17:48;101473.22;;;10.12;81.70
62708;BME280;48769;51.624;5.886;2022-12-07T11:20:41;101473.22;;;10.12;81.54
62708;BME280;48769;51.624;5.886;2022-12-07T11:29:20;101467.31;;;10.05;81.47
62708;BME280;48769;51.624;5.886;2022-12-07T11:32:21;101468.97;;;9.86;81.85
62708;BME280;48769;51.624;5.886;2022-12-07T11:37:35;101460.38;;;10.03;82.24
62708;BME280;48769;51.624;5.886;2022-12-07T11:40:05;101459.72;;;9.98;81.96
62708;BME280;48769;51.624;5.886;2022-12-07T11:42:42;101450.03;;;9.75;80.78
62708;BME280;48769;51.624;5.886;2022-12-07T11:45:20;101450.44;;;9.64;82.10
62708;BME280;48769;51.624;5.886;2022-12-07T11:53:05;101446.59;;;9.73;82.77
62708;BME280;48769;51.624;5.886;2022-12-07T11:55:54;101445.44;;;9.80;82.81
62708;BME280;48769;51.624;5.886;2022-12-07T12:01:13;101442.59;;;10.08;81.52
62708;BME280;48769;51.624;5.886;2022-12-07T12:03:47;101435.31;;;10.37;81.52
62708;BME280;48769;51.624;5.886;2022-12-07T12:06:13;101436.56;;;10.48;80.49
62708;BME280;48769;51.624;5.886;2022-12-07T12:08:50;101431.97;;;10.53;80.38
62708;BME280;48769;51.624;5.886;2022-12-07T12:14:22;101429.84;;;10.62;79.45
62708;BME280;48769;51.624;5.886;2022-12-07T12:17:20;101430.66;;;10.64;78.38
62708;BME280;48769;51.624;5.886;2022-12-07T12:20:26;101430.19;;;10.74;78.27
62708;BME280;48769;51.624;5.886;2022-12-07T12:23:16;101423.59;;;10.42;78.62
62708;BME280;48769;51.624;5.886;2022-12-07T12:25:48;101428.28;;;10.36;79.59
62708;BME280;48769;51.624;5.886;2022-12-07T12:28:39;101429.38;;;10.30;79.19
62708;BME280;48769;51.624;5.886;2022-12-07T12:31:09;101422.72;;;10.20;80.12
62708;BME280;48769;51.624;5.886;2022-12-07T12:33:36;101423.09;;;10.11;79.78
62708;BME280;48769;51.624;5.886;2022-12-07T12:46:47;101410.28;;;9.79;80.92
62708;BME280;48769;51.624;5.886;2022-12-07T12:54:33;101397.59;;;9.89;81.27
62708;BME280;48769;51.624;5.886;2022-12-07T13:05:01;101385.22;;;9.68;80.69
62708;BME280;48769;51.624;5.886;2022-12-07T13:26:18;101372.34;;;10.87;79.50
62708;BME280;48769;51.624;5.886;2022-12-07T13:29:17;101354.94;;;10.83;75.99
62708;BME280;48769;51.624;5.886;2022-12-07T13:31:46;101344.41;;;10.82;76.68
62708;BME280;48769;51.624;5.886;2022-12-07T13:34:39;101352.13;;;10.47;76.75
62708;BME280;48769;51.624;5.886;2022-12-07T13:39:34;101347.72;;;10.03;77.52
62708;BME280;48769;51.624;5.886;2022-12-07T13:42:08;101350.31;;;10.47;76.75
62708;BME280;48769;51.624;5.886;2022-12-07T13:44:40;101340.09;;;10.99;73.97
62708;BME280;48769;51.624;5.886;2022-12-07T13:47:13;101337.25;;;11.61;73.06
62708;BME280;48769;51.624;5.886;2022-12-07T13:49:52;101314.59;;;11.91;70.57
62708;BME280;48769;51.624;5.886;2022-12-07T13:54:58;101311.06;;;11.55;69.20
62708;BME280;48769;51.624;5.886;2022-12-07T13:57:25;101311.06;;;10.79;70.15
62708;BME280;48769;51.624;5.886;2022-12-07T13:59:51;101309.66;;;10.31;71.96
62708;BME280;48769;51.624;5.886;2022-12-07T14:02:22;101313.28;;;10.06;72.98
62708;BME280;48769;51.624;5.886;2022-12-07T14:04:50;101311.81;;;9.79;73.87
62708;BME280;48769;51.624;5.886;2022-12-07T14:07:27;101317.28;;;9.52;74.63
62708;BME280;48769;51.624;5.886;2022-12-07T14:09:55;101321.03;;;9.45;75.05
62708;BME280;48769;51.624;5.886;2022-12-07T14:12:24;101324.91;;;9.80;75.60
62708;BME280;48769;51.624;5.886;2022-12-07T14:14:51;101313.06;;;10.33;73.88
62708;BME280;48769;51.624;5.886;2022-12-07T14:17:22;101309.56;;;9.90;73.69
62708;BME280;48769;51.624;5.886;2022-12-07T14:20:01;101317.81;;;9.60;74.94
62708;BME280;48769;51.624;5.886;2022-12-07T14:22:38;101309.22;;;9.33;75.82
62708;BME280;48769;51.624;5.886;2022-12-07T14:27:39;101308.94;;;9.18;76.62
62708;BME280;48769;51.624;5.886;2022-12-07T14:30:05;101302.31;;;9.07;76.96
62708;BME280;48769;51.624;5.886;2022-12-07T14:32:31;101304.34;;;8.99;77.57
62708;BME280;48769;51.624;5.886;2022-12-07T14:37:24;101292.13;;;8.75;78.53
62708;BME280;48769;51.624;5.886;2022-12-07T14:39:50;101296.34;;;8.79;79.34
62708;BME280;48769;51.624;5.886;2022-12-07T14:42:15;101297.84;;;8.86;79.18
62708;BME280;48769;51.624;5.886;2022-12-07T14:44:41;101296.22;;;8.82;79.23
62708;BME280;48769;51.624;5.886;2022-12-07T14:47:11;101296.34;;;8.79;79.12
62708;BME280;48769;51.624;5.886;2022-12-07T14:49:37;101303.53;;;8.74;79.76
62708;BME280;48769;51.624;5.886;2022-12-07T14:52:03;101294.75;;;8.75;79.96
62708;BME280;48769;51.624;5.886;2022-12-07T14:54:31;101302.75;;;8.72;80.18
62708;BME280;48769;51.624;5.886;2022-12-07T14:56:57;101296.78;;;8.66;80.68
62708;BME280;48769;51.624;5.886;2022-12-07T14:59:22;101296.69;;;8.70;80.95
62708;BME280;48769;51.624;5.886;2022-12-07T15:01:47;101297.41;;;8.73;81.17